Wetterdaten: Woche 24.02.03 - 02.03.03 (KW9)
Datum Zeit Temperatur Luftfeuchte Luftdruck Regenmenge Wind Richtung Taupunkt Windchill
24.02.2003 00:00 -5.6 C 89 % 1033.1 hPa 0.0 l/m 0.0 km/h (0 Bft) N -7.2 C -5.6 C
24.02.2003 01:00 -6.0 C 88 % 1033.1 hPa 0.0 l/m 0.0 km/h (0 Bft) N -7.6 C -6.0 C
24.02.2003 02:00 -6.5 C 88 % 1033.1 hPa 0.0 l/m 0.0 km/h (0 Bft) N -8.2 C -6.5 C
24.02.2003 03:00 -6.9 C 87 % 1033.1 hPa 0.0 l/m 0.3 km/h (0 Bft) O-SO -8.6 C -6.9 C
24.02.2003 04:00 -7.0 C 87 % 1033.1 hPa 0.0 l/m 0.0 km/h (0 Bft) N -8.7 C -7.0 C
24.02.2003 05:00 -6.2 C 91 % 1033.0 hPa 0.0 l/m 0.0 km/h (0 Bft) N -7.5 C -6.2 C
24.02.2003 06:00 -5.9 C 94 % 1032.6 hPa 0.0 l/m 0.0 km/h (0 Bft) N -6.7 C -5.9 C
24.02.2003 07:00 -5.6 C 94 % 1032.0 hPa 0.0 l/m 0.0 km/h (0 Bft) N -6.3 C -5.6 C
24.02.2003 08:00 -4.9 C 95 % 1032.0 hPa 0.0 l/m 2.0 km/h (1 Bft) O-SO -5.7 C -5.4 C
24.02.2003 09:00 -4.1 C 92 % 1032.0 hPa 0.0 l/m 2.6 km/h (1 Bft) O-SO -5.2 C -5.0 C
24.02.2003 10:00 -2.7 C 84 % 1031.8 hPa 0.0 l/m 1.7 km/h (1 Bft) O-SO -5.0 C -3.3 C
24.02.2003 11:00 -1.1 C 75 % 1031.0 hPa 0.0 l/m 2.5 km/h (1 Bft) NW -4.9 C -1.9 C
24.02.2003 12:00 0.6 C 73 % 1030.5 hPa 0.0 l/m 1.9 km/h (1 Bft) NW -3.6 C 0.2 C
24.02.2003 13:00 2.5 C 66 % 1029.5 hPa 0.0 l/m 2.0 km/h (1 Bft) SO -3.2 C 2.0 C
24.02.2003 14:00 4.6 C 59 % 1028.9 hPa 0.0 l/m 9.0 km/h (2 Bft) SO -2.8 C 2.5 C
24.02.2003 15:00 5.3 C 53 % 1028.1 hPa 0.0 l/m 13.4 km/h (3 Bft) O-SO -3.5 C 2.5 C
24.02.2003 16:00 4.7 C 50 % 1027.7 hPa 0.0 l/m 14.6 km/h (3 Bft) O-SO -4.9 C 1.5 C
24.02.2003 17:00 3.1 C 58 % 1026.9 hPa 0.0 l/m 6.3 km/h (2 Bft) SO -4.4 C 1.6 C
24.02.2003 18:00 0.7 C 69 % 1026.9 hPa 0.0 l/m 6.6 km/h (2 Bft) SO -4.3 C -1.4 C
24.02.2003 19:00 -1.1 C 77 % 1026.8 hPa 0.0 l/m 1.8 km/h (1 Bft) O-SO -4.6 C -1.5 C
24.02.2003 20:00 -2.9 C 84 % 1026.8 hPa 0.0 l/m 0.0 km/h (0 Bft) N -5.1 C -2.9 C
24.02.2003 21:00 -3.8 C 88 % 1026.8 hPa 0.0 l/m 0.0 km/h (0 Bft) N -5.5 C -3.8 C
24.02.2003 22:00 -4.0 C 90 % 1026.8 hPa 0.0 l/m 0.0 km/h (0 Bft) N -5.4 C -4.0 C
24.02.2003 23:00 -4.4 C 91 % 1026.8 hPa 0.0 l/m 0.0 km/h (0 Bft) N -5.6 C -4.4 C
25.02.2003 00:00 -5.1 C 91 % 1026.8 hPa 0.0 l/m 0.0 km/h (0 Bft) N -6.4 C -5.1 C
25.02.2003 01:00 -5.5 C 90 % 1026.8 hPa 0.0 l/m 0.0 km/h (0 Bft) N -6.9 C -5.5 C
25.02.2003 02:00 -6.1 C 88 % 1025.8 hPa 0.0 l/m 0.0 km/h (0 Bft) N -7.8 C -6.1 C
25.02.2003 03:00 -6.6 C 87 % 1025.8 hPa 0.0 l/m 0.0 km/h (0 Bft) N -8.4 C -6.6 C
25.02.2003 04:00 -6.9 C 86 % 1025.8 hPa 0.0 l/m 0.0 km/h (0 Bft) N -8.8 C -6.9 C
25.02.2003 05:00 -7.3 C 86 % 1025.8 hPa 0.0 l/m 0.0 km/h (0 Bft) N -9.2 C -7.3 C
25.02.2003 06:00 -7.4 C 85 % 1025.8 hPa 0.0 l/m 0.0 km/h (0 Bft) N -9.4 C -7.4 C
25.02.2003 07:00 -7.8 C 85 % 1025.8 hPa 0.0 l/m 0.0 km/h (0 Bft) N -9.9 C -7.8 C
25.02.2003 08:00 -6.4 C 86 % 1025.5 hPa 0.0 l/m 0.0 km/h (0 Bft) N -8.4 C -6.4 C
25.02.2003 09:00 -4.3 C 85 % 1024.8 hPa 0.0 l/m 0.0 km/h (0 Bft) N -6.4 C -4.3 C
25.02.2003 10:00 -2.1 C 77 % 1024.8 hPa 0.0 l/m 0.8 km/h (0 Bft) SO -5.7 C -2.3 C
25.02.2003 11:00 1.2 C 67 % 1024.2 hPa 0.0 l/m 13.3 km/h (3 Bft) SO -4.2 C -2.4 C
25.02.2003 12:00 3.3 C 57 % 1023.2 hPa 0.0 l/m 12.6 km/h (3 Bft) SO -4.4 C 0.3 C
25.02.2003 13:00 5.0 C 49 % 1022.7 hPa 0.0 l/m 14.7 km/h (3 Bft) SO -4.8 C 1.8 C
25.02.2003 14:00 6.3 C 47 % 1021.6 hPa 0.0 l/m 11.7 km/h (2 Bft) SO -4.2 C 4.0 C
25.02.2003 15:00 6.8 C 45 % 1021.6 hPa 0.0 l/m 1.8 km/h (1 Bft) SO -4.2 C 6.6 C
25.02.2003 16:00 6.6 C 45 % 1020.6 hPa 0.0 l/m 1.3 km/h (1 Bft) SO -4.5 C 6.4 C
25.02.2003 17:00 4.8 C 49 % 1020.6 hPa 0.0 l/m 0.8 km/h (0 Bft) SO -5.1 C 4.7 C
25.02.2003 18:00 1.9 C 57 % 1020.6 hPa 0.0 l/m 0.4 km/h (0 Bft) SO -5.7 C 1.9 C
25.02.2003 19:00 -0.6 C 65 % 1020.6 hPa 0.0 l/m 2.1 km/h (1 Bft) SO -6.4 C -1.3 C
25.02.2003 20:00 -2.0 C 78 % 1020.6 hPa 0.0 l/m 0.4 km/h (0 Bft) O-SO -5.4 C -2.0 C
25.02.2003 21:00 -2.6 C 80 % 1020.6 hPa 0.0 l/m 1.7 km/h (1 Bft) O-SO -5.5 C -2.9 C
25.02.2003 22:00 -3.2 C 83 % 1020.6 hPa 0.0 l/m 0.2 km/h (0 Bft) O-SO -5.7 C -3.2 C
25.02.2003 23:00 -3.4 C 87 % 1020.6 hPa 0.0 l/m 0.3 km/h (0 Bft) O -5.3 C -3.4 C
26.02.2003 00:00 -3.6 C 90 % 1020.6 hPa 0.0 l/m 0.0 km/h (0 Bft) N -5.0 C -3.6 C
26.02.2003 01:00 -2.3 C 89 % 1020.4 hPa 0.0 l/m 0.0 km/h (0 Bft) N -3.9 C -2.3 C
26.02.2003 02:00 -2.1 C 83 % 1019.6 hPa 0.0 l/m 0.1 km/h (0 Bft) N -4.6 C -2.1 C
26.02.2003 03:00 -1.8 C 82 % 1019.6 hPa 0.0 l/m 0.5 km/h (0 Bft) S -4.5 C -1.8 C
26.02.2003 04:00 -1.7 C 83 % 1019.6 hPa 0.0 l/m 1.0 km/h (0 Bft) SO -4.2 C -2.0 C
26.02.2003 05:00 -1.8 C 83 % 1019.4 hPa 0.0 l/m 0.0 km/h (0 Bft) N -4.3 C -1.8 C
26.02.2003 06:00 -2.0 C 87 % 1018.5 hPa 0.0 l/m 0.0 km/h (0 Bft) N -3.9 C -2.0 C
26.02.2003 07:00 -2.2 C 88 % 1018.9 hPa 0.0 l/m 0.0 km/h (0 Bft) N -3.9 C -2.2 C
26.02.2003 08:00 -0.8 C 83 % 1019.5 hPa 0.0 l/m 0.0 km/h (0 Bft) N -3.4 C -0.8 C
26.02.2003 09:00 0.3 C 75 % 1019.5 hPa 0.0 l/m 0.0 km/h (0 Bft) N -3.6 C 0.3 C
26.02.2003 10:00 2.1 C 63 % 1018.5 hPa 0.0 l/m 0.4 km/h (0 Bft) W-NW -4.2 C 2.1 C
26.02.2003 11:00 5.2 C 49 % 1018.5 hPa 0.0 l/m 0.6 km/h (0 Bft) W-NW -4.7 C 5.2 C
26.02.2003 12:00 8.4 C 38 % 1017.6 hPa 0.0 l/m 2.1 km/h (1 Bft) W-NW -5.1 C 8.2 C
26.02.2003 13:00 10.8 C 35 % 1017.1 hPa 0.0 l/m 2.3 km/h (1 Bft) SO -4.3 C 10.8 C
26.02.2003 14:00 11.7 C 34 % 1016.4 hPa 0.0 l/m 1.6 km/h (1 Bft) W-NW -3.6 C 11.7 C
26.02.2003 15:00 11.9 C 33 % 1016.4 hPa 0.0 l/m 1.2 km/h (1 Bft) W-NW -3.9 C 11.9 C
26.02.2003 16:00 11.2 C 35 % 1015.6 hPa 0.0 l/m 2.0 km/h (1 Bft) W-NW -3.7 C 11.2 C
26.02.2003 17:00 8.2 C 40 % 1015.4 hPa 0.0 l/m 7.8 km/h (2 Bft) O-SO -4.6 C 7.4 C
26.02.2003 18:00 3.8 C 54 % 1015.5 hPa 0.0 l/m 3.9 km/h (1 Bft) O-SO -4.8 C 3.0 C
26.02.2003 19:00 1.6 C 64 % 1016.2 hPa 0.0 l/m 2.1 km/h (1 Bft) O-SO -4.5 C 1.2 C
26.02.2003 20:00 -0.1 C 72 % 1016.4 hPa 0.0 l/m 2.7 km/h (1 Bft) O-SO -4.6 C -0.8 C
26.02.2003 21:00 -1.0 C 79 % 1016.3 hPa 0.0 l/m 0.6 km/h (0 Bft) O-SO -4.2 C -1.1 C
26.02.2003 22:00 -1.8 C 81 % 1016.4 hPa 0.0 l/m 1.2 km/h (1 Bft) O-SO -4.6 C -1.9 C
26.02.2003 23:00 -2.4 C 84 % 1016.4 hPa 0.0 l/m 1.3 km/h (1 Bft) O-SO -4.8 C -2.7 C
27.02.2003 00:00 -2.9 C 84 % 1016.4 hPa 0.0 l/m 0.5 km/h (0 Bft) O-SO -5.2 C -2.9 C
27.02.2003 01:00 -3.5 C 87 % 1016.4 hPa 0.0 l/m 1.3 km/h (1 Bft) O-SO -5.3 C -3.8 C
27.02.2003 02:00 -4.4 C 88 % 1016.4 hPa 0.0 l/m 0.0 km/h (0 Bft) N -6.1 C -4.4 C
27.02.2003 03:00 -4.7 C 90 % 1016.4 hPa 0.0 l/m 0.5 km/h (0 Bft) O-SO -6.1 C -4.9 C
27.02.2003 04:00 -5.2 C 90 % 1016.4 hPa 0.0 l/m 0.5 km/h (0 Bft) O-SO -6.6 C -5.2 C
27.02.2003 05:00 -5.3 C 91 % 1016.4 hPa 0.0 l/m 0.7 km/h (0 Bft) O-SO -6.5 C -5.3 C
27.02.2003 06:00 -5.9 C 90 % 1016.8 hPa 0.0 l/m 0.0 km/h (0 Bft) N -7.2 C -5.9 C
27.02.2003 07:00 -5.6 C 89 % 1017.5 hPa 0.0 l/m 0.4 km/h (0 Bft) O-SO -7.0 C -5.7 C
27.02.2003 08:00 -4.1 C 86 % 1017.5 hPa 0.0 l/m 0.0 km/h (0 Bft) N -6.1 C -4.1 C
27.02.2003 09:00 -2.3 C 83 % 1018.5 hPa 0.0 l/m 0.0 km/h (0 Bft) N -4.8 C -2.3 C
27.02.2003 10:00 1.1 C 71 % 1018.5 hPa 0.0 l/m 4.0 km/h (1 Bft) O-SO -3.5 C 0.0 C
27.02.2003 11:00 4.5 C 57 % 1018.5 hPa 0.0 l/m 8.9 km/h (2 Bft) O-SO -3.4 C 2.3 C
27.02.2003 12:00 7.5 C 42 % 1018.5 hPa 0.0 l/m 6.2 km/h (2 Bft) SO -4.6 C 6.4 C
27.02.2003 13:00 10.0 C 38 % 1018.3 hPa 0.0 l/m 5.6 km/h (1 Bft) SO -3.8 C 9.8 C
27.02.2003 14:00 11.3 C 38 % 1018.0 hPa 0.0 l/m 7.9 km/h (2 Bft) SO -2.5 C 11.3 C
27.02.2003 15:00 12.3 C 35 % 1018.5 hPa 0.0 l/m 5.3 km/h (1 Bft) S-SO -2.6 C 12.3 C
27.02.2003 16:00 11.4 C 35 % 1018.7 hPa 0.0 l/m 7.8 km/h (2 Bft) SO -3.6 C 11.4 C
27.02.2003 17:00 8.8 C 39 % 1019.6 hPa 0.0 l/m 7.3 km/h (2 Bft) SO -4.3 C 7.8 C
27.02.2003 18:00 6.3 C 42 % 1020.7 hPa 0.0 l/m 10.0 km/h (2 Bft) O-SO -5.5 C 4.2 C
27.02.2003 19:00 5.0 C 47 % 1021.6 hPa 0.0 l/m 2.1 km/h (1 Bft) O-SO -5.3 C 4.7 C
27.02.2003 20:00 2.5 C 60 % 1022.6 hPa 0.0 l/m 1.2 km/h (1 Bft) O-SO -4.5 C 2.3 C
27.02.2003 21:00 2.2 C 62 % 1023.1 hPa 0.0 l/m 0.0 km/h (0 Bft) N -4.3 C 2.2 C
27.02.2003 22:00 2.1 C 64 % 1023.7 hPa 0.0 l/m 0.0 km/h (0 Bft) N -4.0 C 2.1 C
27.02.2003 23:00 1.7 C 67 % 1024.5 hPa 0.0 l/m 0.0 km/h (0 Bft) N -3.7 C 1.7 C
28.02.2003 00:00 1.5 C 68 % 1024.8 hPa 0.0 l/m 0.0 km/h (0 Bft) N -3.7 C 1.5 C
28.02.2003 01:00 1.2 C 72 % 1024.9 hPa 0.0 l/m 0.7 km/h (0 Bft) O-SO -3.4 C 1.0 C
28.02.2003 02:00 0.7 C 74 % 1025.8 hPa 0.0 l/m 1.4 km/h (1 Bft) O-SO -3.3 C 0.4 C
28.02.2003 03:00 0.6 C 76 % 1025.8 hPa 0.0 l/m 0.5 km/h (0 Bft) O-SO -3.2 C 0.6 C
28.02.2003 04:00 0.1 C 78 % 1026.1 hPa 0.0 l/m 0.8 km/h (0 Bft) O-SO -3.3 C 0.0 C
28.02.2003 05:00 0.1 C 79 % 1026.8 hPa 0.0 l/m 1.0 km/h (0 Bft) O-SO -3.2 C 0.1 C
28.02.2003 06:00 0.2 C 79 % 1026.8 hPa 0.0 l/m 0.1 km/h (0 Bft) N -2.9 C 0.2 C
28.02.2003 07:00 0.2 C 83 % 1027.4 hPa 0.0 l/m 0.0 km/h (0 Bft) N -2.3 C 0.2 C
28.02.2003 08:00 1.4 C 79 % 1027.9 hPa 0.0 l/m 0.0 km/h (0 Bft) N -2.0 C 1.4 C
28.02.2003 09:00 2.8 C 72 % 1028.0 hPa 0.0 l/m 0.4 km/h (0 Bft) O-SO -1.9 C 2.7 C
28.02.2003 10:00 5.9 C 53 % 1027.9 hPa 0.0 l/m 2.4 km/h (1 Bft) O-SO -3.1 C 5.5 C
28.02.2003 11:00 8.5 C 44 % 1027.9 hPa 0.0 l/m 4.7 km/h (1 Bft) SO -3.1 C 7.9 C
28.02.2003 12:00 11.4 C 36 % 1027.2 hPa 0.0 l/m 5.0 km/h (1 Bft) SO -3.1 C 11.4 C
28.02.2003 13:00 12.5 C 35 % 1026.8 hPa 0.0 l/m 3.0 km/h (1 Bft) SO -2.6 C 12.5 C
28.02.2003 14:00 12.5 C 38 % 1025.8 hPa 0.0 l/m 2.5 km/h (1 Bft) SO -1.5 C 12.5 C
28.02.2003 15:00 12.5 C 34 % 1025.8 hPa 0.0 l/m 1.3 km/h (1 Bft) O-SO -2.8 C 12.5 C
28.02.2003 16:00 11.5 C 44 % 1024.8 hPa 0.0 l/m 6.7 km/h (2 Bft) O-SO -0.4 C 11.5 C
28.02.2003 17:00 9.9 C 46 % 1024.8 hPa 0.0 l/m 9.1 km/h (2 Bft) O-SO -1.3 C 8.9 C
28.02.2003 18:00 7.7 C 50 % 1025.7 hPa 0.0 l/m 4.3 km/h (1 Bft) O-SO -2.1 C 7.1 C
28.02.2003 19:00 6.1 C 55 % 1025.8 hPa 0.0 l/m 1.9 km/h (1 Bft) O-SO -2.2 C 5.8 C
28.02.2003 20:00 4.0 C 67 % 1025.8 hPa 0.0 l/m 0.0 km/h (0 Bft) N -1.6 C 4.0 C
28.02.2003 21:00 2.3 C 75 % 1025.8 hPa 0.0 l/m 0.0 km/h (0 Bft) N -1.6 C 2.3 C
28.02.2003 22:00 1.1 C 81 % 1025.8 hPa 0.0 l/m 0.1 km/h (0 Bft) O-SO -1.8 C 1.1 C
28.02.2003 23:00 0.5 C 83 % 1025.8 hPa 0.0 l/m 0.0 km/h (0 Bft) N -2.1 C 0.5 C
01.03.2003 00:00 -0.0 C 86 % 1025.8 hPa 0.0 l/m 1.1 km/h (1 Bft) O-SO -2.1 C -0.3 C
01.03.2003 01:00 0.1 C 86 % 1025.8 hPa 0.0 l/m 0.3 km/h (0 Bft) O-SO -1.9 C 0.1 C
01.03.2003 02:00 -0.0 C 85 % 1025.8 hPa 0.0 l/m 0.0 km/h (0 Bft) N -2.2 C -0.0 C
01.03.2003 03:00 0.3 C 85 % 1025.8 hPa 0.0 l/m 0.8 km/h (0 Bft) O-SO -2.0 C 0.1 C
01.03.2003 04:00 0.4 C 87 % 1025.8 hPa 0.0 l/m 0.6 km/h (0 Bft) O-SO -1.6 C 0.2 C
01.03.2003 05:00 0.2 C 89 % 1025.8 hPa 0.0 l/m 0.3 km/h (0 Bft) O-SO -1.4 C 0.1 C
01.03.2003 06:00 0.6 C 90 % 1025.8 hPa 0.0 l/m 2.3 km/h (1 Bft) O-SO -0.9 C -0.1 C
01.03.2003 07:00 0.8 C 91 % 1025.7 hPa 0.0 l/m 2.7 km/h (1 Bft) O-SO -0.5 C 0.1 C
01.03.2003 08:00 1.5 C 89 % 1025.8 hPa 0.0 l/m 0.5 km/h (0 Bft) S-SO -0.2 C 1.5 C
01.03.2003 09:00 2.7 C 82 % 1025.8 hPa 0.0 l/m 0.8 km/h (0 Bft) W-NW -0.1 C 2.5 C
01.03.2003 10:00 4.9 C 70 % 1025.4 hPa 0.0 l/m 0.7 km/h (0 Bft) O-SO -0.1 C 4.8 C
01.03.2003 11:00 8.2 C 59 % 1024.4 hPa 0.0 l/m 4.3 km/h (1 Bft) O-SO 0.7 C 7.8 C
01.03.2003 12:00 12.3 C 46 % 1023.1 hPa 0.0 l/m 9.2 km/h (2 Bft) SO 0.9 C 12.3 C
01.03.2003 13:00 13.7 C 41 % 1022.0 hPa 0.0 l/m 6.8 km/h (2 Bft) O-SO 0.8 C 13.7 C
01.03.2003 14:00 14.7 C 39 % 1021.2 hPa 0.0 l/m 7.6 km/h (2 Bft) SO 1.0 C 14.7 C
01.03.2003 15:00 14.5 C 38 % 1020.0 hPa 0.0 l/m 7.5 km/h (2 Bft) O-SO 0.2 C 14.5 C
01.03.2003 16:00 14.0 C 38 % 1019.6 hPa 0.0 l/m 3.3 km/h (1 Bft) SO -0.1 C 14.0 C
01.03.2003 17:00 11.1 C 47 % 1019.3 hPa 0.0 l/m 7.0 km/h (2 Bft) O-SO 0.1 C 11.0 C
01.03.2003 18:00 9.2 C 53 % 1018.8 hPa 0.0 l/m 3.8 km/h (1 Bft) O-SO 0.0 C 8.9 C
01.03.2003 19:00 7.6 C 66 % 1018.9 hPa 0.3 l/m 5.2 km/h (1 Bft) O-SO 1.6 C 6.7 C
01.03.2003 20:00 6.1 C 86 % 1019.3 hPa 0.6 l/m 3.8 km/h (1 Bft) O-SO 3.9 C 5.4 C
01.03.2003 21:00 6.2 C 92 % 1019.0 hPa 0.6 l/m 14.3 km/h (3 Bft) O-SO 5.0 C 3.7 C
01.03.2003 22:00 5.6 C 95 % 1019.0 hPa 1.8 l/m 0.3 km/h (0 Bft) O-SO 4.8 C 5.6 C
01.03.2003 23:00 5.8 C 97 % 1019.1 hPa 1.8 l/m 7.3 km/h (2 Bft) O-SO 5.4 C 4.3 C
02.03.2003 00:00 6.2 C 96 % 1019.0 hPa 0.9 l/m 7.1 km/h (2 Bft) S-SW 5.7 C 5.0 C
02.03.2003 01:00 6.1 C 94 % 1019.0 hPa 0.9 l/m 7.4 km/h (2 Bft) SO 5.3 C 4.6 C
02.03.2003 02:00 6.1 C 96 % 1019.0 hPa 0.6 l/m 5.8 km/h (2 Bft) S-SO 5.5 C 5.2 C
02.03.2003 03:00 6.2 C 96 % 1017.9 hPa 0.6 l/m 8.8 km/h (2 Bft) S 5.6 C 4.5 C
02.03.2003 04:00 6.0 C 96 % 1017.7 hPa 0.0 l/m 2.2 km/h (1 Bft) S 5.4 C 5.7 C
02.03.2003 05:00 5.7 C 97 % 1017.2 hPa 0.6 l/m 1.3 km/h (1 Bft) O-SO 5.2 C 5.6 C
02.03.2003 06:00 5.3 C 97 % 1016.9 hPa 0.0 l/m 0.1 km/h (0 Bft) N 4.9 C 5.3 C
02.03.2003 07:00 4.8 C 98 % 1016.7 hPa 0.0 l/m 1.9 km/h (1 Bft) O-SO 4.5 C 4.6 C
02.03.2003 08:00 5.5 C 100 % 1016.2 hPa 0.0 l/m 0.2 km/h (0 Bft) O 5.5 C 5.5 C
02.03.2003 09:00 8.0 C 94 % 1015.6 hPa 0.0 l/m 4.3 km/h (1 Bft) S 7.1 C 7.4 C
02.03.2003 10:00 8.7 C 80 % 1014.8 hPa 0.0 l/m 6.5 km/h (2 Bft) SO 5.4 C 7.7 C
02.03.2003 11:00 9.2 C 75 % 1014.3 hPa 0.0 l/m 7.9 km/h (2 Bft) SO 5.0 C 8.0 C
02.03.2003 12:00 9.9 C 71 % 1013.8 hPa 0.0 l/m 3.5 km/h (1 Bft) SO 4.8 C 9.7 C
02.03.2003 13:00 8.6 C 78 % 1012.9 hPa 1.5 l/m 9.4 km/h (2 Bft) SO 4.9 C 7.2 C
02.03.2003 14:00 6.5 C 88 % 1013.8 hPa 1.8 l/m 13.6 km/h (3 Bft) W-NW 4.6 C 4.2 C
02.03.2003 15:00 6.3 C 86 % 1014.6 hPa 0.3 l/m 17.9 km/h (3 Bft) W-NW 4.1 C 3.3 C
02.03.2003 16:00 6.5 C 84 % 1014.8 hPa 0.0 l/m 3.0 km/h (1 Bft) S-SO 3.9 C 6.0 C
02.03.2003 17:00 6.9 C 77 % 1014.4 hPa 0.0 l/m 5.9 km/h (2 Bft) S-SW 3.1 C 5.9 C
02.03.2003 18:00 5.7 C 85 % 1014.8 hPa 0.3 l/m 7.2 km/h (2 Bft) W 3.3 C 4.3 C
02.03.2003 19:00 5.0 C 87 % 1014.8 hPa 0.0 l/m 3.8 km/h (1 Bft) S-SO 3.0 C 4.4 C
02.03.2003 20:00 4.6 C 86 % 1015.7 hPa 0.9 l/m 30.2 km/h (5 Bft) W-NW 2.5 C -0.2 C
02.03.2003 21:00 4.0 C 92 % 1015.8 hPa 0.0 l/m 10.8 km/h (2 Bft) W 2.7 C 1.4 C
02.03.2003 22:00 4.2 C 92 % 1016.7 hPa 0.3 l/m 20.7 km/h (4 Bft) W-NW 3.0 C 0.1 C
02.03.2003 23:00 4.2 C 90 % 1016.9 hPa 0.0 l/m 16.6 km/h (3 Bft) W-NW 2.8 C 0.6 C
Min-Datum _ 25.02.03 26.02.03 02.03.03 - 24.02.03 - 25.02.03 24.02.03
_ Min-Zeit 07:31 13:59 13:09 - 00:00 - 06:40 08:15
Minimum _ -8.0 C 26 % 1012.7 hPa - 0.0 km/h (0 Bft) - -10.1 C -9.4 C
Max-Datum _ 01.03.03 02.03.03 24.02.03 01.03.03 02.03.03 - 02.03.03 01.03.03
_ Max-Zeit 14:38 07:27 00:00 21:00 20:12 - 09:18 14:38
Maximum _ 15.4 C 100 % 1033.1 hPa 1.8 l/m 52.9 km/h
W-NW (7 Bft)
- 7.9 C 15.4 C
Durchschnitt _ 2.4 C 73 % 1022.2 hPa #13.8 l/m 3.3 km/h (1 Bft) O-SO -2.7 C 1.9 C

Durchschnitt Minimum Temp.1.5 C
Durchschnitt Maximum Temp.3.2 C
© Kaiko 2003